Time;durP1;ratioP1;P1;durP2;ratioP2;P2;SDS_P1;SDS_P2;PMS_P1;PMS_P2;Temp;Humidity;BMP_temperature;BMP_pressure;BME280_temperature;BME280_humidity;BME280_pressure;Samples;Min_cycle;Max_cycle;Signal;HPM_P1;HPM_P2
2022/10/04 00:01:26;;;;;;;16.00;13.20;;;;;;;9.22;100.00;97944.30;106374;1271;22538;-80
2022/10/04 00:04:10;;;;;;;15.00;12.30;;;;;;;9.22;100.00;97941.73;106322;1271;22648;-80
2022/10/04 00:06:56;;;;;;;17.70;11.00;;;;;;;9.18;100.00;97941.18;106378;1271;25455;-80
2022/10/04 00:09:35;;;;;;;16.80;11.40;;;;;;;9.17;100.00;97936.61;106394;1271;24412;-81
2022/10/04 00:12:04;;;;;;;16.20;11.00;;;;;;;9.17;100.00;97932.91;106368;1271;25396;-80
2022/10/04 00:14:38;;;;;;;15.80;10.70;;;;;;;9.17;100.00;97933.52;106349;1271;22797;-80
2022/10/04 00:17:13;;;;;;;16.80;11.10;;;;;;;9.15;100.00;97942.50;106375;1271;22541;-80
2022/10/04 00:19:46;;;;;;;17.70;11.60;;;;;;;9.14;100.00;97936.49;106393;1271;25223;-81
2022/10/04 00:22:17;;;;;;;18.40;11.70;;;;;;;9.12;100.00;97942.70;106367;1271;25347;-81
2022/10/04 00:25:12;;;;;;;16.60;10.10;;;;;;;9.09;100.00;97937.59;106311;1271;22561;-81
2022/10/04 00:28:18;;;;;;;15.60;10.10;;;;;;;9.11;100.00;97940.98;106240;1271;22531;-81
2022/10/04 00:31:10;;;;;;;15.70;11.60;;;;;;;9.12;100.00;97939.38;106368;1271;22717;-81
2022/10/04 00:33:49;;;;;;;14.50;10.70;;;;;;;9.13;100.00;97940.11;106376;1271;22540;-80
2022/10/04 00:36:23;;;;;;;15.60;10.80;;;;;;;9.14;100.00;97935.59;106334;1271;22874;-81
2022/10/04 00:39:06;;;;;;;16.40;11.50;;;;;;;9.15;100.00;97935.52;106352;1271;26606;-80
2022/10/04 00:41:46;;;;;;;16.90;10.90;;;;;;;9.14;100.00;97931.56;106328;1271;25614;-81
2022/10/04 00:44:43;;;;;;;17.00;10.00;;;;;;;9.12;100.00;97926.91;106309;1271;22642;-81
2022/10/04 00:47:33;;;;;;;16.20;10.40;;;;;;;9.11;100.00;97923.96;106270;1271;22550;-80
2022/10/04 00:50:25;;;;;;;17.60;10.30;;;;;;;9.11;100.00;97924.27;106350;1271;22554;-80
2022/10/04 00:52:57;;;;;;;16.50;10.20;;;;;;;9.12;100.00;97926.31;106360;1271;22532;-81
2022/10/04 00:55:35;;;;;;;18.80;11.60;;;;;;;9.11;100.00;97922.66;106361;1271;25337;-81
2022/10/04 00:58:14;;;;;;;22.50;13.00;;;;;;;9.09;100.00;97925.82;106325;1271;22547;-80
2022/10/04 01:00:44;;;;;;;19.60;12.00;;;;;;;9.09;100.00;97926.35;106328;1271;22786;-81
2022/10/04 01:03:45;;;;;;;16.40;11.60;;;;;;;9.08;100.00;97924.04;106333;1271;22997;-80
2022/10/04 01:06:14;;;;;;;17.80;11.70;;;;;;;9.08;100.00;97917.95;105980;1277;25525;-80
2022/10/04 01:08:52;;;;;;;17.10;13.10;;;;;;;9.10;100.00;97918.06;105953;1277;25297;-81
2022/10/04 01:11:29;;;;;;;19.60;13.70;;;;;;;9.12;100.00;97919.54;105913;1277;22647;-80
2022/10/04 01:14:07;;;;;;;16.80;12.40;;;;;;;9.13;100.00;97920.87;105915;1277;25231;-80
2022/10/04 01:16:36;;;;;;;16.80;12.10;;;;;;;9.13;100.00;97926.14;105963;1277;22534;-81
2022/10/04 01:19:50;;;;;;;16.30;11.80;;;;;;;9.11;100.00;97917.45;105935;1277;23194;-80
2022/10/04 01:22:40;;;;;;;15.00;12.00;;;;;;;9.08;100.00;97920.02;105594;1281;22807;-81
2022/10/04 01:25:08;;;;;;;15.10;10.60;;;;;;;9.09;100.00;97919.41;105882;1280;24298;-80
2022/10/04 01:27:40;;;;;;;15.50;10.30;;;;;;;9.09;100.00;97918.33;105833;1280;24244;-80
2022/10/04 01:30:12;;;;;;;18.60;9.60;;;;;;;9.08;100.00;97924.59;105829;1280;23074;-80
2022/10/04 01:32:40;;;;;;;16.50;9.00;;;;;;;9.04;100.00;97917.53;105582;1280;23232;-80
2022/10/04 01:35:11;;;;;;;13.00;8.20;;;;;;;9.02;100.00;97914.08;105802;1280;23397;-81
2022/10/04 01:37:40;;;;;;;12.90;7.60;;;;;;;8.95;100.00;97909.00;105879;1280;22547;-81
2022/10/04 01:40:09;;;;;;;11.00;7.00;;;;;;;8.94;100.00;97909.82;105898;1280;22616;-81
2022/10/04 01:42:48;;;;;;;14.80;8.50;;;;;;;8.92;100.00;97912.20;106099;1274;22578;-81
2022/10/04 01:45:27;;;;;;;15.20;9.70;;;;;;;8.92;100.00;97920.38;106256;1274;25461;-82
2022/10/04 01:48:07;;;;;;;16.40;10.30;;;;;;;8.92;100.00;97923.27;106225;1274;25264;-81
2022/10/04 01:50:58;;;;;;;14.50;10.30;;;;;;;8.91;100.00;97926.56;106235;1274;22681;-81
2022/10/04 01:53:28;;;;;;;14.50;9.70;;;;;;;8.91;100.00;97921.52;106313;1271;22540;-81
2022/10/04 01:56:07;;;;;;;17.10;10.20;;;;;;;8.91;100.00;97916.89;106306;1271;22557;-81
2022/10/04 01:58:44;;;;;;;12.50;8.50;;;;;;;8.91;100.00;97916.45;106355;1274;25391;-82
2022/10/04 02:01:29;;;;;;;15.40;9.50;;;;;;;8.91;100.00;97911.40;106404;1271;22537;-81
2022/10/04 02:04:12;;;;;;;14.20;7.70;;;;;;;8.89;100.00;97916.33;106340;1271;24264;-80
2022/10/04 02:06:47;;;;;;;14.40;7.30;;;;;;;8.84;100.00;97916.98;106372;1271;24275;-81
2022/10/04 02:09:21;;;;;;;12.80;7.00;;;;;;;8.83;100.00;97916.61;106418;1271;25294;-80
2022/10/04 02:11:51;;;;;;;9.30;6.30;;;;;;;8.82;100.00;97916.23;106405;1271;22558;-81
2022/10/04 02:14:31;;;;;;;11.70;5.80;;;;;;;8.84;100.00;97910.58;106291;1271;24297;-81
2022/10/04 02:17:09;;;;;;;11.30;5.70;;;;;;;8.84;100.00;97907.04;106435;1271;25348;-81
2022/10/04 02:19:41;;;;;;;12.80;6.30;;;;;;;8.82;100.00;97907.27;106373;1271;22692;-82
2022/10/04 02:22:10;;;;;;;12.30;6.00;;;;;;;8.83;100.00;97904.09;106379;1271;24332;-80
2022/10/04 02:24:42;;;;;;;12.30;6.20;;;;;;;8.81;100.00;97916.84;106400;1271;22553;-79
2022/10/04 02:27:12;;;;;;;14.30;7.30;;;;;;;8.80;100.00;97921.27;106377;1271;23210;-80
2022/10/04 02:29:40;;;;;;;18.40;6.80;;;;;;;8.78;100.00;97920.16;106296;1271;25332;-79
2022/10/04 02:34:56;;;;;;;11.10;5.70;;;;;;;8.73;100.00;97917.16;106346;1271;25334;-80
2022/10/04 02:37:27;;;;;;;12.30;6.40;;;;;;;8.69;100.00;97919.45;106329;1271;24457;-80
2022/10/04 02:40:05;;;;;;;13.90;6.70;;;;;;;8.67;100.00;97923.08;106382;1271;22551;-80
2022/10/04 02:42:33;;;;;;;16.80;6.60;;;;;;;8.62;100.00;97925.64;106340;1271;25400;-80
2022/10/04 02:45:29;;;;;;;13.20;6.60;;;;;;;8.61;100.00;97925.71;106383;1271;22546;-80
2022/10/04 02:48:02;;;;;;;16.10;7.40;;;;;;;8.59;100.00;97925.27;106324;1271;24236;-80
2022/10/04 02:50:40;;;;;;;15.70;7.80;;;;;;;8.58;100.00;97918.61;106337;1271;22684;-80
2022/10/04 02:53:18;;;;;;;17.80;7.70;;;;;;;8.59;100.00;97922.52;106409;1271;24273;-80
2022/10/04 02:55:47;;;;;;;14.60;7.10;;;;;;;8.61;100.00;97922.39;106292;1271;22767;-80
2022/10/04 02:58:19;;;;;;;15.60;8.60;;;;;;;8.62;100.00;97920.34;106355;1271;22672;-80
2022/10/04 03:00:58;;;;;;;17.60;8.70;;;;;;;8.63;100.00;97921.14;106357;1271;22684;-80
2022/10/04 03:03:33;;;;;;;14.00;9.50;;;;;;;8.62;100.00;97921.58;106364;1271;22568;-80
2022/10/04 03:06:10;;;;;;;14.40;9.20;;;;;;;8.63;100.00;97919.19;106361;1271;25250;-80
2022/10/04 03:08:54;;;;;;;14.10;7.90;;;;;;;8.63;100.00;97924.77;106428;1271;24185;-79
2022/10/04 03:11:24;;;;;;;;;;;;;;;8.60;100.00;97920.13;106453;1271;22520;-80
2022/10/04 03:13:56;;;;;;;15.60;8.60;;;;;;;8.60;100.00;97921.21;106229;1271;22658;-81
2022/10/04 03:16:25;;;;;;;17.70;7.20;;;;;;;8.60;100.00;97919.06;106277;1271;22532;-80
2022/10/04 03:18:56;;;;;;;13.60;7.30;;;;;;;8.59;100.00;97916.77;106284;1271;22612;-81
2022/10/04 03:21:25;;;;;;;14.20;6.60;;;;;;;8.59;100.00;97922.20;106390;1271;22887;-80
2022/10/04 03:23:53;;;;;;;8.90;5.50;;;;;;;8.58;100.00;97925.15;106365;1271;22545;-80
2022/10/04 03:26:31;;;;;;;14.40;5.90;;;;;;;8.59;100.00;97925.16;106343;1271;22554;-82
2022/10/04 03:29:00;;;;;;;10.50;5.60;;;;;;;8.60;100.00;97924.16;106327;1271;22556;-80
2022/10/04 03:32:18;;;;;;;9.10;4.90;;;;;;;8.58;100.00;97919.62;106365;1271;23211;-80
2022/10/04 03:34:56;;;;;;;11.40;5.00;;;;;;;8.61;100.00;97923.79;106340;1271;22557;-81
2022/10/04 03:37:27;;;;;;;10.80;5.00;;;;;;;8.60;100.00;97927.13;106302;1271;22688;-81
2022/10/04 03:39:57;;;;;;;10.30;5.00;;;;;;;8.60;100.00;97923.80;106312;1271;22999;-80
2022/10/04 03:42:29;;;;;;;13.30;6.20;;;;;;;8.61;100.00;97918.57;106243;1271;22733;-81
2022/10/04 03:45:05;;;;;;;14.40;6.00;;;;;;;8.62;100.00;97916.86;106260;1271;22539;-81
2022/10/04 03:47:36;;;;;;;16.40;6.70;;;;;;;8.64;100.00;97920.08;106396;1271;22697;-81
2022/10/04 03:50:14;;;;;;;13.20;7.00;;;;;;;8.68;100.00;97923.23;106344;1271;22557;-80
2022/10/04 03:52:57;;;;;;;14.90;8.40;;;;;;;8.71;100.00;97923.04;106375;1271;22538;-80
2022/10/04 03:55:37;;;;;;;16.10;8.50;;;;;;;8.72;100.00;97922.08;106406;1271;24514;-80
2022/10/04 03:58:08;;;;;;;16.10;8.90;;;;;;;8.70;100.00;97921.04;106416;1271;24214;-80
2022/10/04 04:00:42;;;;;;;20.00;12.20;;;;;;;8.72;100.00;97921.04;106405;1271;22701;-80
2022/10/04 04:03:17;;;;;;;15.80;8.40;;;;;;;8.74;100.00;97924.23;106391;1271;22573;-81
2022/10/04 04:05:53;;;;;;;14.40;7.30;;;;;;;8.74;100.00;97924.02;106427;1271;22748;-79
2022/10/04 04:08:25;;;;;;;16.10;7.10;;;;;;;8.74;100.00;97927.36;106404;1271;22525;-78
2022/10/04 04:10:59;;;;;;;13.70;7.50;;;;;;;8.74;100.00;97924.84;106292;1271;25460;-80
2022/10/04 04:13:57;;;;;;;13.10;6.50;;;;;;;8.74;100.00;97927.30;106272;1271;24277;-80
2022/10/04 04:16:26;;;;;;;11.10;6.50;;;;;;;8.74;100.00;97928.86;106262;1271;23476;-80
2022/10/04 04:19:00;;;;;;;13.20;7.00;;;;;;;8.75;100.00;97933.46;106250;1271;25263;-80
2022/10/04 04:21:30;;;;;;;11.00;5.90;;;;;;;8.76;100.00;97942.59;106262;1271;25222;-81
2022/10/04 04:24:02;;;;;;;16.00;7.80;;;;;;;8.77;100.00;97945.91;106280;1271;26503;-81
2022/10/04 04:26:41;;;;;;;15.20;6.60;;;;;;;8.75;100.00;97946.63;106276;1271;22850;-80
2022/10/04 04:29:23;;;;;;;10.30;6.20;;;;;;;8.75;100.00;97952.59;106269;1271;23469;-79
2022/10/04 04:31:57;;;;;;;14.80;6.00;;;;;;;8.74;100.00;97951.86;106293;1271;24189;-80
2022/10/04 04:34:28;;;;;;;;;;;;;;;8.76;100.00;97958.49;106249;1271;24421;-80
2022/10/04 04:36:59;;;;;;;13.30;5.80;;;;;;;8.74;100.00;97957.77;106347;1271;22751;-81
2022/10/04 04:39:40;;;;;;;15.70;6.40;;;;;;;8.75;100.00;97966.19;106334;1271;25461;-81
2022/10/04 04:42:10;;;;;;;13.70;6.10;;;;;;;8.78;100.00;97964.16;106210;1271;24094;-81
2022/10/04 04:44:47;;;;;;;13.70;5.80;;;;;;;8.76;100.00;97964.41;106224;1271;25474;-80
2022/10/04 04:47:32;;;;;;;15.10;5.80;;;;;;;8.73;100.00;97965.77;106244;1271;22547;-80
2022/10/04 04:50:12;;;;;;;14.40;6.00;;;;;;;8.74;100.00;97964.48;106252;1271;22537;-81
2022/10/04 04:52:44;;;;;;;15.30;6.10;;;;;;;8.73;100.00;97964.65;106318;1271;22543;-80
2022/10/04 04:55:19;;;;;;;11.10;5.60;;;;;;;8.72;100.00;97964.99;106334;1271;22537;-80
2022/10/04 04:57:48;;;;;;;16.60;6.10;;;;;;;8.72;100.00;97974.34;106350;1271;22570;-80
2022/10/04 05:00:19;;;;;;;12.80;6.80;;;;;;;8.70;100.00;97970.33;106432;1271;23063;-80
2022/10/04 05:02:54;;;;;;;13.60;5.40;;;;;;;8.70;100.00;97977.42;106318;1271;23004;-80
2022/10/04 05:05:33;;;;;;;12.50;5.90;;;;;;;8.70;100.00;97982.36;106162;1271;25404;-80
2022/10/04 05:08:03;;;;;;;13.00;5.70;;;;;;;8.69;100.00;97980.65;106204;1271;22654;-80
2022/10/04 05:10:33;;;;;;;10.70;5.40;;;;;;;8.68;100.00;97985.16;106220;1271;24411;-81
2022/10/04 05:13:03;;;;;;;12.90;5.80;;;;;;;8.65;100.00;97986.43;106242;1271;22523;-81
2022/10/04 05:15:34;;;;;;;13.00;5.60;;;;;;;8.63;100.00;97987.15;106268;1271;22548;-80
2022/10/04 05:18:25;;;;;;;13.10;5.50;;;;;;;8.62;100.00;97997.75;106239;1271;22831;-78
2022/10/04 05:20:57;;;;;;;13.50;5.50;;;;;;;8.60;100.00;97996.20;106262;1271;24278;-81
2022/10/04 05:23:26;;;;;;;11.80;5.40;;;;;;;8.59;100.00;97993.64;106377;1269;22546;-79
2022/10/04 05:25:54;;;;;;;9.00;5.10;;;;;;;8.60;100.00;98004.48;106347;1271;22583;-80
2022/10/04 05:28:23;;;;;;;11.10;5.90;;;;;;;8.58;100.00;98008.53;106286;1271;24407;-81
2022/10/04 05:31:06;;;;;;;11.10;5.60;;;;;;;8.56;100.00;98012.63;106298;1271;25561;-81
2022/10/04 05:33:50;;;;;;;11.40;5.20;;;;;;;8.56;100.00;98016.87;106176;1271;22532;-81
2022/10/04 05:36:35;;;;;;;13.00;5.70;;;;;;;8.56;100.00;98025.14;106237;1271;22694;-81
2022/10/04 05:39:15;;;;;;;;;;;;;;;8.57;100.00;98028.09;106287;1271;22871;-81
2022/10/04 05:41:57;;;;;;;12.40;6.00;;;;;;;8.56;100.00;98035.67;106366;1271;24277;-81
2022/10/04 05:44:44;;;;;;;12.90;5.10;;;;;;;8.58;100.00;98037.41;106450;1271;25344;-80
2022/10/04 05:47:14;;;;;;;11.20;5.30;;;;;;;8.58;100.00;98041.29;106349;1271;25238;-80
2022/10/04 05:49:45;;;;;;;14.40;5.30;;;;;;;8.61;100.00;98040.41;106248;1271;25372;-81
2022/10/04 05:52:23;;;;;;;13.90;5.80;;;;;;;8.62;100.00;98034.88;106313;1271;23967;-81
2022/10/04 05:55:32;;;;;;;9.80;4.60;;;;;;;8.62;100.00;98041.33;106354;1271;22542;-82
2022/10/04 05:58:27;;;;;;;16.10;5.90;;;;;;;8.61;100.00;98047.39;105978;1277;22647;-80
2022/10/04 06:01:15;;;;;;;;;;;;;;;8.62;100.00;98045.71;105871;1277;23910;-80
2022/10/04 06:04:37;;;;;;;10.20;5.50;;;;;;;8.63;100.00;98047.00;105933;1277;22704;-79
2022/10/04 06:07:13;;;;;;;12.00;6.00;;;;;;;8.60;100.00;98055.63;105943;1277;23552;-80
2022/10/04 06:10:03;;;;;;;14.40;5.60;;;;;;;8.60;100.00;98054.86;105925;1277;22556;-80
2022/10/04 06:12:42;;;;;;;14.60;5.50;;;;;;;8.60;100.00;98061.00;105869;1277;25548;-81
2022/10/04 06:15:37;;;;;;;9.50;5.20;;;;;;;8.61;100.00;98060.71;105882;1277;22528;-80
2022/10/04 06:18:47;;;;;;;13.50;6.10;;;;;;;8.63;100.00;98062.20;105911;1277;22627;-81
2022/10/04 06:21:44;;;;;;;11.20;5.60;;;;;;;8.64;100.00;98072.51;105868;1277;22534;-80
2022/10/04 06:24:21;;;;;;;11.00;6.10;;;;;;;8.65;100.00;98076.85;105613;1277;22576;-81
2022/10/04 06:27:03;;;;;;;9.10;5.60;;;;;;;8.67;100.00;98081.46;105894;1277;23940;-81
2022/10/04 06:29:38;;;;;;;11.20;5.00;;;;;;;8.73;100.00;98085.97;105975;1277;24252;-81
2022/10/04 06:32:28;;;;;;;12.90;5.50;;;;;;;8.76;100.00;98079.40;106055;1271;22724;-80
2022/10/04 06:35:03;;;;;;;11.10;5.10;;;;;;;8.80;100.00;98076.35;106362;1271;23406;-80
2022/10/04 06:37:53;;;;;;;16.40;6.20;;;;;;;8.85;100.00;98075.48;106358;1271;22566;-81
2022/10/04 06:40:50;;;;;;;13.60;6.40;;;;;;;8.90;100.00;98079.05;106256;1271;23384;-81
2022/10/04 06:43:25;;;;;;;12.40;5.00;;;;;;;8.95;100.00;98082.77;106368;1271;25301;-81
2022/10/04 06:46:10;;;;;;;13.70;5.50;;;;;;;9.02;100.00;98086.14;106250;1271;25391;-80
2022/10/04 06:48:57;;;;;;;;;;;;;;;9.07;100.00;98088.77;106262;1271;24682;-81
2022/10/04 06:51:31;;;;;;;16.70;6.70;;;;;;;9.16;100.00;98093.70;106249;1268;22578;-83
2022/10/04 06:54:11;;;;;;;12.00;5.40;;;;;;;9.22;100.00;98098.47;106278;1271;22559;-81
2022/10/04 06:56:52;;;;;;;14.90;6.30;;;;;;;9.25;100.00;98102.68;106232;1271;22746;-81
2022/10/04 06:59:29;;;;;;;11.20;5.30;;;;;;;9.33;100.00;98106.48;106397;1271;24414;-82
2022/10/04 07:02:11;;;;;;;15.90;5.30;;;;;;;9.35;100.00;98110.05;106322;1271;22553;-81
2022/10/04 07:04:53;;;;;;;12.90;6.10;;;;;;;9.34;100.00;98115.71;106345;1271;22553;-82
2022/10/04 07:07:43;;;;;;;11.20;5.60;;;;;;;9.31;100.00;98120.48;106409;1271;25373;-81
2022/10/04 07:10:24;;;;;;;12.60;5.40;;;;;;;9.28;100.00;98124.81;106373;1271;22530;-81
2022/10/04 07:13:10;;;;;;;13.30;4.90;;;;;;;9.24;100.00;98126.26;106372;1271;24411;-81
2022/10/04 07:15:58;;;;;;;10.60;4.80;;;;;;;9.24;100.00;98130.12;106326;1271;22547;-81
2022/10/04 07:18:48;;;;;;;13.10;5.10;;;;;;;9.24;100.00;98134.70;106265;1271;25221;-80
2022/10/04 07:21:17;;;;;;;8.90;4.90;;;;;;;9.25;100.00;98133.92;106349;1271;22691;-81
2022/10/04 07:23:52;;;;;;;13.10;5.60;;;;;;;9.29;100.00;98133.58;106418;1271;23012;-80
2022/10/04 07:26:29;;;;;;;12.40;5.60;;;;;;;9.33;100.00;98143.00;106375;1271;24290;-80
2022/10/04 07:29:20;;;;;;;10.20;5.00;;;;;;;9.38;100.00;98138.32;106263;1271;22536;-81
2022/10/04 07:32:08;;;;;;;15.50;6.30;;;;;;;9.42;100.00;98146.77;106252;1270;23980;-80
2022/10/04 07:34:44;;;;;;;12.80;5.50;;;;;;;9.43;100.00;98147.58;106521;1271;22557;-81
2022/10/04 07:37:13;;;;;;;11.70;5.50;;;;;;;9.50;100.00;98146.74;106340;1270;22626;-81
2022/10/04 07:40:20;;;;;;;12.90;5.90;;;;;;;9.58;100.00;98148.81;106379;1271;22536;-81
2022/10/04 07:43:18;;;;;;;13.80;6.10;;;;;;;9.65;100.00;98144.76;106290;1271;26519;-81
2022/10/04 07:45:48;;;;;;;9.80;5.10;;;;;;;9.65;100.00;98152.02;106264;1271;22572;-80
2022/10/04 07:48:22;;;;;;;10.00;5.40;;;;;;;9.62;100.00;98152.96;106313;1271;24272;-81
2022/10/04 07:50:50;;;;;;;11.10;6.40;;;;;;;9.63;99.93;98155.74;106310;1271;24214;-81
2022/10/04 07:53:33;;;;;;;13.90;6.10;;;;;;;9.64;99.98;98156.77;106231;1271;22531;-82
2022/10/04 07:56:14;;;;;;;12.00;6.00;;;;;;;9.67;99.82;98164.48;106235;1271;24405;-81
2022/10/04 07:59:07;;;;;;;14.80;5.60;;;;;;;9.70;99.96;98160.41;106176;1271;22541;-81
2022/10/04 08:02:11;;;;;;;14.40;6.00;;;;;;;9.74;99.84;98163.88;106281;1271;22533;-80
2022/10/04 08:05:19;;;;;;;14.10;6.50;;;;;;;9.73;99.70;98170.77;106238;1274;24209;-80
2022/10/04 08:07:59;;;;;;;11.80;6.00;;;;;;;9.77;99.46;98181.27;106321;1271;22684;-81
2022/10/04 08:10:51;;;;;;;11.70;5.30;;;;;;;9.80;99.41;98184.90;106215;1271;22543;-80
2022/10/04 08:13:37;;;;;;;14.10;5.40;;;;;;;9.80;99.16;98182.86;106243;1271;22567;-80
2022/10/04 08:16:18;;;;;;;13.20;5.60;;;;;;;9.81;98.96;98183.05;106320;1271;22571;-81
2022/10/04 08:19:08;;;;;;;14.30;5.50;;;;;;;9.78;98.41;98187.55;106238;1271;22551;-81
2022/10/04 08:22:15;;;;;;;12.90;5.70;;;;;;;9.80;98.54;98188.83;106234;1271;25319;-81
2022/10/04 08:24:52;;;;;;;12.50;4.60;;;;;;;9.83;98.25;98190.89;106180;1273;26559;-81
2022/10/04 08:27:32;;;;;;;15.60;5.70;;;;;;;9.84;98.27;98192.96;106224;1274;22920;-80
2022/10/04 08:30:15;;;;;;;13.30;6.00;;;;;;;9.89;98.04;98193.67;106244;1271;25351;-81
2022/10/04 08:32:55;;;;;;;11.00;5.70;;;;;;;9.92;97.79;98195.00;106299;1271;25446;-81
2022/10/04 08:35:47;;;;;;;12.40;5.70;;;;;;;9.97;98.40;98192.56;106220;1271;24055;-81
2022/10/04 08:38:18;;;;;;;11.70;5.80;;;;;;;10.10;98.38;98191.44;106341;1271;22540;-81
2022/10/04 08:41:24;;;;;;;10.70;5.60;;;;;;;10.20;97.75;98199.02;106317;1270;24083;-80
2022/10/04 08:44:10;;;;;;;12.40;5.70;;;;;;;10.26;97.02;98200.80;106297;1270;25442;-80
2022/10/04 08:47:16;;;;;;;11.60;5.40;;;;;;;10.28;96.11;98202.50;106242;1271;25446;-81
2022/10/04 08:50:13;;;;;;;11.10;5.10;;;;;;;10.34;96.31;98205.60;106369;1271;22763;-81
2022/10/04 08:53:01;;;;;;;13.70;5.90;;;;;;;10.42;96.55;98202.87;106358;1271;23218;-80
2022/10/04 08:55:51;;;;;;;12.10;5.80;;;;;;;10.48;96.33;98202.84;106253;1271;22560;-80
2022/10/04 08:58:43;;;;;;;14.20;5.10;;;;;;;10.51;95.35;98200.70;106247;1271;22620;-80
2022/10/04 09:01:58;;;;;;;10.60;4.80;;;;;;;10.50;94.15;98208.80;106252;1270;25341;-81
2022/10/04 09:04:35;;;;;;;11.80;5.50;;;;;;;10.46;93.92;98205.98;106153;1271;22923;-81
2022/10/04 09:07:22;;;;;;;14.60;4.80;;;;;;;10.46;94.26;98204.03;106309;1271;22524;-81
2022/10/04 09:10:10;;;;;;;9.80;4.60;;;;;;;10.48;93.36;98209.89;106255;1271;23923;-83
2022/10/04 09:13:21;;;;;;;11.60;4.20;;;;;;;10.45;93.94;98206.75;106344;1271;24239;-80
2022/10/04 09:15:55;;;;;;;9.70;4.90;;;;;;;10.46;93.59;98214.98;106384;1271;24242;-81
2022/10/04 09:18:49;;;;;;;12.30;5.60;;;;;;;10.40;93.22;98216.94;106376;1271;23937;-80
2022/10/04 09:21:34;;;;;;;12.80;5.30;;;;;;;10.35;93.58;98219.88;106346;1271;25234;-84
2022/10/04 09:24:36;;;;;;;12.50;5.60;;;;;;;10.34;94.25;98226.14;106363;1271;24364;-82
2022/10/04 09:27:04;;;;;;;14.10;5.20;;;;;;;10.37;94.05;98231.70;106228;1271;22730;-82
2022/10/04 09:30:10;;;;;;;11.60;5.00;;;;;;;10.37;93.94;98234.42;106240;1269;25228;-81
2022/10/04 09:33:29;;;;;;;15.30;5.50;;;;;;;10.40;94.26;98235.70;106378;1271;22528;-81
2022/10/04 09:36:22;;;;;;;11.70;5.30;;;;;;;10.44;94.01;98245.33;105839;1277;23141;-81
2022/10/04 09:39:09;;;;;;;13.80;5.20;;;;;;;10.50;94.00;98244.83;105899;1276;22768;-82
2022/10/04 09:42:17;;;;;;;12.50;4.70;;;;;;;10.57;94.24;98248.02;106041;1277;24288;-81
2022/10/04 09:44:56;;;;;;;8.80;4.30;;;;;;;10.86;93.20;98250.12;105854;1277;25484;-81
2022/10/04 09:47:30;;;;;;;11.70;4.70;;;;;;;11.15;91.92;98247.36;105886;1274;22738;-84
2022/10/04 09:50:23;;;;;;;12.40;4.80;;;;;;;11.30;91.26;98248.85;105997;1277;23951;-79
2022/10/04 09:52:57;;;;;;;9.30;4.40;;;;;;;11.41;90.92;98251.42;105967;1277;22519;-80
2022/10/04 09:55:48;;;;;;;9.20;4.20;;;;;;;11.44;88.97;98249.11;105976;1277;24594;-81
2022/10/04 09:58:45;;;;;;;7.20;3.50;;;;;;;11.47;88.24;98252.56;105857;1277;22563;-81
2022/10/04 10:01:39;;;;;;;7.70;3.70;;;;;;;11.55;88.52;98259.81;105946;1277;25176;-82
2022/10/04 10:04:35;;;;;;;11.90;4.90;;;;;;;11.62;86.24;98260.14;106014;1277;22575;-81
2022/10/04 10:07:17;;;;;;;10.30;5.00;;;;;;;11.69;86.45;98256.94;106167;1271;22749;-81
2022/10/04 10:16:11;;;;;;;8.50;4.30;;;;;;;11.97;83.90;98263.83;106225;1271;22537;-83
2022/10/04 10:19:18;;;;;;;10.00;4.20;;;;;;;12.01;83.70;98262.72;106331;1271;25302;-82
2022/10/04 10:21:56;;;;;;;11.00;3.90;;;;;;;11.99;82.42;98266.68;106301;1271;22694;-82
2022/10/04 10:24:43;;;;;;;6.40;3.30;;;;;;;11.99;83.47;98269.55;106257;1271;23399;-81
2022/10/04 10:27:24;;;;;;;9.30;3.70;;;;;;;12.02;84.11;98268.41;106273;1271;23261;-80
2022/10/04 10:30:14;;;;;;;7.50;3.90;;;;;;;12.02;82.99;98271.89;106293;1271;24270;-81
2022/10/04 10:33:05;;;;;;;11.90;3.80;;;;;;;11.88;81.91;98275.04;106263;1271;22885;-81
2022/10/04 10:36:10;;;;;;;9.40;3.80;;;;;;;11.77;82.04;98278.07;106272;1271;25444;-81
2022/10/04 10:38:47;;;;;;;12.50;3.70;;;;;;;11.70;81.91;98281.38;106416;1271;24217;-81
2022/10/04 10:41:43;;;;;;;8.60;3.80;;;;;;;11.65;81.74;98279.61;106185;1271;24339;-81
2022/10/04 10:44:28;;;;;;;9.70;4.20;;;;;;;11.65;81.46;98283.94;106307;1271;22528;-80
2022/10/04 10:47:21;;;;;;;8.20;3.90;;;;;;;11.75;82.07;98284.11;106274;1271;22534;-82
2022/10/04 10:50:04;;;;;;;7.30;3.30;;;;;;;11.96;81.80;98286.30;106276;1271;23146;-82
2022/10/04 10:52:53;;;;;;;10.80;3.70;;;;;;;12.23;81.50;98289.14;106289;1271;22531;-82
2022/10/04 10:55:40;;;;;;;7.50;3.90;;;;;;;12.51;80.13;98285.45;106313;1271;22854;-81
2022/10/04 10:58:33;;;;;;;10.10;4.00;;;;;;;12.67;79.69;98287.63;106280;1271;22522;-81
2022/10/04 11:01:24;;;;;;;9.90;3.80;;;;;;;12.97;80.12;98289.09;106338;1271;22707;-82
2022/10/04 11:04:37;;;;;;;9.10;4.00;;;;;;;13.08;79.62;98290.78;106319;1271;24268;-82
2022/10/04 11:07:24;;;;;;;8.90;4.20;;;;;;;12.99;78.13;98291.04;106239;1271;25637;-82
2022/10/04 11:10:14;;;;;;;13.50;4.30;;;;;;;12.88;80.10;98288.62;106251;1271;22691;-81
2022/10/04 11:13:05;;;;;;;9.50;3.80;;;;;;;12.79;78.18;98297.77;106283;1271;22531;-83
2022/10/04 11:15:51;;;;;;;7.30;4.00;;;;;;;12.65;78.78;98293.88;106169;1271;22540;-81
2022/10/04 11:18:25;;;;;;;9.50;4.80;;;;;;;12.59;78.63;98290.74;106263;1271;24190;-81
2022/10/04 11:21:02;;;;;;;11.20;4.80;;;;;;;12.58;78.56;98287.15;106273;1271;22688;-82
2022/10/04 11:24:21;;;;;;;10.20;4.20;;;;;;;12.53;79.63;98293.20;106257;1271;23924;-84
2022/10/04 11:27:10;;;;;;;9.30;5.00;;;;;;;12.41;77.21;98302.45;106031;1277;25532;-82
2022/10/04 11:29:57;;;;;;;11.30;5.00;;;;;;;12.23;76.11;98304.54;106012;1277;22580;-82
2022/10/04 11:32:52;;;;;;;10.20;4.00;;;;;;;12.08;76.44;98303.35;106024;1277;22568;-81
2022/10/04 11:35:29;;;;;;;;;;;;;;;11.98;76.85;98310.94;105913;1277;22588;-81
2022/10/04 11:38:10;;;;;;;8.90;4.30;;;;;;;11.99;77.45;98316.48;105871;1277;23234;-80
2022/10/04 11:40:48;;;;;;;8.80;3.40;;;;;;;11.98;75.66;98318.73;105982;1276;22861;-82
2022/10/04 11:43:34;;;;;;;7.60;3.90;;;;;;;11.99;75.96;98314.81;105944;1277;22556;-82
2022/10/04 11:46:12;;;;;;;7.20;3.50;;;;;;;12.07;75.33;98313.05;106092;1277;22893;-82
2022/10/04 11:48:40;;;;;;;5.90;3.10;;;;;;;12.29;76.06;98311.67;105892;1277;22554;-82
2022/10/04 11:51:47;;;;;;;8.20;3.30;;;;;;;12.64;74.55;98313.20;105827;1277;23346;-81
2022/10/04 11:54:27;;;;;;;7.60;3.40;;;;;;;12.99;72.90;98301.74;105963;1277;24275;-82
2022/10/04 11:57:38;;;;;;;8.60;3.50;;;;;;;13.23;70.04;98302.40;105986;1277;22753;-82
2022/10/04 12:00:19;;;;;;;8.00;3.30;;;;;;;13.67;70.89;98297.97;106392;1271;25324;-82
2022/10/04 12:03:21;;;;;;;7.20;3.70;;;;;;;14.08;67.81;98310.94;106277;1271;25300;-82
2022/10/04 12:06:08;;;;;;;6.60;4.20;;;;;;;14.35;66.58;98305.14;106266;1271;22673;-82
2022/10/04 12:09:03;;;;;;;12.20;3.50;;;;;;;14.40;65.27;98309.39;106265;1271;23931;-82
2022/10/04 12:12:38;;;;;;;9.00;3.60;;;;;;;14.46;63.41;98306.30;106358;1269;22556;-83
2022/10/04 12:15:31;;;;;;;7.50;3.00;;;;;;;14.56;63.00;98307.67;106107;1277;24250;-85
2022/10/04 12:18:27;;;;;;;9.30;3.90;;;;;;;14.64;63.04;98310.75;105963;1277;22535;-84
2022/10/04 12:21:33;;;;;;;10.00;4.70;;;;;;;14.84;62.71;98308.41;106039;1277;22534;-83
2022/10/04 12:24:14;;;;;;;8.70;4.20;;;;;;;14.78;62.05;98316.81;106043;1277;22640;-84
2022/10/04 12:27:07;;;;;;;9.20;5.10;;;;;;;14.34;62.24;98314.92;106034;1277;23755;-83
2022/10/04 12:29:53;;;;;;;10.60;4.60;;;;;;;14.10;63.59;98311.71;106082;1277;22618;-82
2022/10/04 12:32:25;;;;;;;5.90;3.20;;;;;;;14.24;63.37;98317.94;106075;1277;22535;-81
2022/10/04 12:35:08;;;;;;;10.30;3.80;;;;;;;14.41;62.37;98324.10;106082;1277;24290;-82
2022/10/04 12:37:40;;;;;;;9.50;3.70;;;;;;;14.25;62.25;98321.33;106049;1277;23201;-82
2022/10/04 12:40:08;;;;;;;6.70;3.30;;;;;;;14.08;63.18;98327.58;105989;1277;22662;-83